Time;durP1;ratioP1;P1;durP2;ratioP2;P2;SDS_P1;SDS_P2;PMS_P1;PMS_P2;Temp;Humidity;BMP_temperature;BMP_pressure;BME280_temperature;BME280_humidity;BME280_pressure;Samples;Min_cycle;Max_cycle;Signal;HPM_P1;HPM_P2
2023/05/03 00:02:13;;;;;;;6.68;0.90;;;4.60;99.90;;;;;;4995377;28;20030;-86
2023/05/03 00:04:39;;;;;;;6.22;0.95;;;4.60;99.90;;;;;;5001281;28;20105;-86
2023/05/03 00:07:04;;;;;;;2.45;1.13;;;4.50;99.90;;;;;;4987583;28;20465;-86
2023/05/03 00:09:32;;;;;;;3.60;1.45;;;4.50;99.90;;;;;;4991029;28;20116;-86
2023/05/03 00:12:00;;;;;;;4.05;1.25;;;4.50;99.90;;;;;;4984809;28;20036;-86
2023/05/03 00:14:25;;;;;;;5.80;1.10;;;4.50;99.90;;;;;;4995516;28;20053;-86
2023/05/03 00:16:51;;;;;;;6.07;1.00;;;4.50;99.90;;;;;;4996022;28;20049;-86
2023/05/03 00:19:18;;;;;;;3.80;0.90;;;4.40;99.90;;;;;;5005522;28;20033;-87
2023/05/03 00:21:44;;;;;;;3.40;1.55;;;4.40;99.90;;;;;;4976987;28;20066;-86
2023/05/03 00:24:09;;;;;;;5.85;1.40;;;4.40;99.90;;;;;;4992198;28;20053;-86
2023/05/03 00:26:35;;;;;;;3.67;1.25;;;4.40;99.90;;;;;;5013250;28;20033;-86
2023/05/03 00:29:00;;;;;;;5.03;1.20;;;4.40;99.90;;;;;;5015071;28;20045;-86
2023/05/03 00:31:26;;;;;;;3.90;1.25;;;4.40;99.90;;;;;;4999072;28;20026;-86
2023/05/03 00:33:51;;;;;;;3.55;1.25;;;4.40;99.90;;;;;;4992661;28;20088;-86
2023/05/03 00:36:17;;;;;;;5.07;1.10;;;4.40;99.90;;;;;;4993376;28;20030;-86
2023/05/03 00:38:42;;;;;;;7.57;1.30;;;4.40;99.90;;;;;;5003715;28;20113;-86
2023/05/03 00:41:12;;;;;;;6.22;1.42;;;4.50;99.90;;;;;;4993968;28;20061;-86
2023/05/03 00:43:37;;;;;;;5.60;1.40;;;4.50;99.90;;;;;;4997785;28;20360;-86
2023/05/03 00:46:05;;;;;;;7.75;1.13;;;4.50;99.90;;;;;;4995656;28;20029;-86
2023/05/03 00:48:32;;;;;;;10.50;1.35;;;4.50;99.90;;;;;;4995430;28;20030;-86
2023/05/03 00:50:59;;;;;;;5.95;1.35;;;4.50;99.90;;;;;;4997871;28;20030;-86
2023/05/03 00:53:26;;;;;;;5.38;1.00;;;4.50;99.90;;;;;;5013350;28;20026;-86
2023/05/03 00:55:52;;;;;;;8.40;1.40;;;4.50;99.90;;;;;;4996546;28;20145;-86
2023/05/03 00:58:21;;;;;;;3.50;1.35;;;4.50;99.90;;;;;;4994861;28;20089;-86
2023/05/03 01:00:47;;;;;;;3.28;1.20;;;4.50;99.90;;;;;;4993996;28;20121;-86
2023/05/03 01:03:13;;;;;;;4.50;1.10;;;4.40;99.90;;;;;;4987055;28;20036;-87
2023/05/03 01:06:17;;;;;;;5.47;1.38;;;4.40;99.90;;;;;;4980302;28;20126;-86
2023/05/03 01:08:49;;;;;;;5.25;1.40;;;4.40;99.90;;;;;;5010297;28;20434;-86
2023/05/03 01:11:24;;;;;;;4.97;1.33;;;4.30;99.90;;;;;;4995214;28;20541;-86
2023/05/03 01:14:04;;;;;;;4.10;1.50;;;4.20;99.90;;;;;;4990303;28;20796;-86
2023/05/03 01:16:38;;;;;;;6.80;1.15;;;4.20;99.90;;;;;;4995280;28;20026;-86
2023/05/03 01:19:12;;;;;;;2.97;1.25;;;4.10;99.90;;;;;;4994730;28;20093;-87
2023/05/03 01:21:41;;;;;;;5.70;1.30;;;4.00;99.90;;;;;;4978929;28;20045;-86
2023/05/03 01:24:12;;;;;;;3.08;1.10;;;4.00;99.90;;;;;;4996026;28;20049;-86
2023/05/03 01:26:38;;;;;;;5.50;1.30;;;4.00;99.90;;;;;;5012316;28;20022;-86
2023/05/03 01:29:04;;;;;;;2.33;1.25;;;4.00;99.90;;;;;;5014789;28;20041;-86
2023/05/03 01:31:49;;;;;;;7.18;1.38;;;3.90;99.90;;;;;;4994522;28;20026;-86
2023/05/03 01:34:50;;;;;;;4.18;1.02;;;3.90;99.90;;;;;;4993063;28;20025;-86
2023/05/03 01:37:17;;;;;;;8.10;1.13;;;3.90;99.90;;;;;;4989124;28;20040;-86
2023/05/03 01:40:03;;;;;;;4.97;1.95;;;3.90;99.90;;;;;;5014031;28;20504;-86
2023/05/03 01:42:30;;;;;;;5.53;1.00;;;3.90;99.90;;;;;;4987554;28;20124;-86
2023/05/03 01:44:57;;;;;;;5.13;1.00;;;3.90;99.90;;;;;;5015959;28;20030;-86
2023/05/03 01:47:23;;;;;;;6.15;1.40;;;3.80;99.90;;;;;;5015931;28;20030;-86
2023/05/03 01:49:48;;;;;;;5.15;0.93;;;3.80;99.90;;;;;;5021412;28;20081;-86
2023/05/03 01:52:14;;;;;;;4.63;1.10;;;3.80;99.90;;;;;;5004179;28;20022;-86
2023/05/03 01:54:40;;;;;;;4.03;1.00;;;3.70;99.90;;;;;;5008122;28;20025;-86
2023/05/03 01:57:05;;;;;;;4.63;1.30;;;3.70;99.90;;;;;;5027459;28;20033;-86
2023/05/03 01:59:31;;;;;;;5.82;1.13;;;3.70;99.90;;;;;;4998129;28;20100;-86
2023/05/03 02:01:56;;;;;;;6.00;1.10;;;3.70;99.90;;;;;;5008747;28;20046;-86
2023/05/03 02:04:22;;;;;;;6.85;0.90;;;3.70;99.90;;;;;;4995080;28;20381;-86
2023/05/03 02:06:47;;;;;;;4.03;0.90;;;3.70;99.90;;;;;;5001581;28;20116;-86
2023/05/03 02:09:13;;;;;;;5.75;1.25;;;3.60;99.90;;;;;;5014237;28;20030;-86
2023/05/03 02:11:39;;;;;;;5.70;1.20;;;3.60;99.90;;;;;;5015576;28;20026;-86
2023/05/03 02:14:04;;;;;;;4.55;1.17;;;3.60;99.90;;;;;;5015788;28;20037;-87
2023/05/03 02:16:30;;;;;;;4.25;1.00;;;3.60;99.90;;;;;;4994926;28;20069;-85
2023/05/03 02:18:58;;;;;;;3.65;1.55;;;3.50;99.90;;;;;;5012751;28;20105;-86
2023/05/03 02:21:26;;;;;;;2.53;0.90;;;3.50;99.90;;;;;;4997177;28;20406;-86
2023/05/03 02:23:53;;;;;;;2.05;0.75;;;3.50;99.90;;;;;;4993886;28;20514;-86
2023/05/03 02:26:18;;;;;;;3.47;1.08;;;3.50;99.90;;;;;;5025779;28;20056;-86
2023/05/03 02:28:44;;;;;;;6.18;1.00;;;3.50;99.90;;;;;;4994693;28;20053;-86
2023/05/03 02:31:10;;;;;;;2.95;0.70;;;3.50;99.90;;;;;;4999821;28;20014;-86
2023/05/03 02:33:35;;;;;;;6.55;1.08;;;3.50;99.90;;;;;;4993801;28;20144;-86
2023/05/03 02:36:01;;;;;;;4.25;1.75;;;3.50;99.90;;;;;;4994191;28;20023;-87
2023/05/03 02:38:26;;;;;;;5.05;1.10;;;3.50;99.90;;;;;;5012539;28;20474;-86
2023/05/03 02:40:52;;;;;;;5.63;1.00;;;3.50;99.90;;;;;;4986685;28;20113;-86
2023/05/03 02:43:17;;;;;;;4.15;1.10;;;3.50;99.90;;;;;;5001162;28;20149;-86
2023/05/03 02:45:43;;;;;;;10.60;1.20;;;3.50;99.90;;;;;;4989164;28;20457;-86
2023/05/03 02:48:09;;;;;;;5.18;0.80;;;3.40;99.90;;;;;;4997127;28;20046;-86
2023/05/03 02:50:35;;;;;;;4.20;0.98;;;3.40;99.90;;;;;;5008402;28;20037;-86
2023/05/03 02:53:00;;;;;;;4.90;0.90;;;3.50;99.90;;;;;;5016747;28;20461;-86
2023/05/03 02:55:26;;;;;;;4.65;0.90;;;3.50;99.90;;;;;;4991530;28;20052;-86
2023/05/03 02:57:52;;;;;;;4.97;1.20;;;3.40;99.90;;;;;;4989691;28;20537;-86
2023/05/03 03:00:17;;;;;;;4.43;0.82;;;3.50;99.90;;;;;;5017274;28;20033;-86
2023/05/03 03:02:43;;;;;;;4.63;1.02;;;3.50;99.90;;;;;;5005588;28;20040;-86
2023/05/03 03:05:09;;;;;;;5.90;1.02;;;3.50;99.90;;;;;;4993417;28;20068;-86
2023/05/03 03:07:36;;;;;;;3.50;0.80;;;3.50;99.90;;;;;;4988979;28;20030;-86
2023/05/03 03:10:02;;;;;;;6.78;1.70;;;3.50;99.90;;;;;;5014685;28;20018;-86
2023/05/03 03:12:28;;;;;;;4.47;0.90;;;3.50;99.90;;;;;;5011441;28;20071;-86
2023/05/03 03:14:54;;;;;;;2.75;0.90;;;3.50;99.90;;;;;;4997021;28;20113;-86
2023/05/03 03:17:19;;;;;;;2.47;0.80;;;3.50;99.90;;;;;;5013243;28;20197;-86
2023/05/03 03:19:45;;;;;;;3.10;1.10;;;3.50;99.90;;;;;;4996937;28;20054;-86
2023/05/03 03:22:11;;;;;;;3.15;1.27;;;3.60;99.90;;;;;;4989549;28;20038;-86
2023/05/03 03:24:37;;;;;;;3.92;1.67;;;3.60;99.90;;;;;;5014402;28;20036;-86
2023/05/03 03:27:02;;;;;;;5.82;1.25;;;3.60;99.90;;;;;;5011386;28;20026;-86
2023/05/03 03:29:30;;;;;;;4.97;1.52;;;3.60;99.90;;;;;;4996136;28;20028;-86
2023/05/03 03:31:56;;;;;;;5.97;1.35;;;3.60;99.90;;;;;;4993801;28;20030;-86
2023/05/03 03:34:22;;;;;;;5.72;1.63;;;3.60;99.90;;;;;;5005504;28;20385;-86
2023/05/03 03:36:47;;;;;;;5.47;1.27;;;3.60;99.90;;;;;;4992805;28;20145;-86
2023/05/03 03:39:13;;;;;;;5.88;1.42;;;3.60;99.90;;;;;;4993668;28;20026;-86
2023/05/03 03:41:40;;;;;;;4.72;1.30;;;3.50;99.90;;;;;;4995843;28;20490;-86
2023/05/03 03:44:05;;;;;;;4.60;1.65;;;3.50;99.90;;;;;;4979467;28;20035;-86
2023/05/03 03:46:31;;;;;;;13.52;3.22;;;3.40;99.90;;;;;;4980387;28;20024;-86
2023/05/03 03:48:56;;;;;;;6.57;1.90;;;3.40;99.90;;;;;;4984581;28;20029;-86
2023/05/03 03:51:22;;;;;;;6.15;1.17;;;3.40;99.90;;;;;;5013302;28;20018;-86
2023/05/03 03:53:48;;;;;;;2.53;1.45;;;3.30;99.90;;;;;;4987235;28;20077;-86
2023/05/03 03:56:13;;;;;;;4.03;1.55;;;3.30;99.90;;;;;;4989627;28;20037;-86
2023/05/03 03:58:39;;;;;;;13.13;4.10;;;3.20;99.90;;;;;;4994481;28;20053;-86
2023/05/03 04:01:05;;;;;;;3.08;1.60;;;3.20;99.90;;;;;;4996664;28;20030;-86
2023/05/03 04:03:30;;;;;;;5.55;1.42;;;3.10;99.90;;;;;;5000962;28;20045;-86
2023/05/03 04:05:56;;;;;;;6.78;2.20;;;3.10;99.90;;;;;;4995246;28;20034;-86
2023/05/03 04:08:22;;;;;;;5.28;1.80;;;3.10;99.90;;;;;;4992528;28;20057;-86
2023/05/03 04:10:47;;;;;;;9.00;2.53;;;3.10;99.90;;;;;;5005018;28;20022;-85
2023/05/03 04:13:13;;;;;;;7.75;2.30;;;3.10;99.90;;;;;;4988943;28;20493;-86
2023/05/03 04:15:38;;;;;;;5.43;2.03;;;3.00;99.90;;;;;;4996043;28;20022;-86
2023/05/03 04:18:04;;;;;;;4.65;2.42;;;3.00;99.90;;;;;;4994973;28;20022;-85
2023/05/03 04:20:31;;;;;;;11.85;2.90;;;3.00;99.90;;;;;;5011137;28;20026;-86
2023/05/03 04:22:57;;;;;;;4.97;2.65;;;3.00;99.90;;;;;;4988474;28;20030;-86
2023/05/03 04:25:24;;;;;;;4.93;2.20;;;3.00;99.90;;;;;;5027636;28;20021;-86
2023/05/03 04:27:50;;;;;;;5.80;2.58;;;3.00;99.90;;;;;;5014720;28;20022;-86
2023/05/03 04:30:16;;;;;;;9.93;2.70;;;3.00;99.90;;;;;;4992343;28;20389;-86
2023/05/03 04:32:42;;;;;;;6.15;2.47;;;3.00;99.90;;;;;;5000536;28;20033;-86
2023/05/03 04:35:09;;;;;;;10.57;2.65;;;3.10;99.90;;;;;;4985787;28;20030;-86
2023/05/03 04:37:44;;;;;;;4.72;2.10;;;3.10;99.90;;;;;;4999233;28;20022;-86
2023/05/03 04:40:11;;;;;;;5.88;2.53;;;3.10;99.90;;;;;;4989265;28;20135;-86
2023/05/03 04:42:37;;;;;;;7.45;2.70;;;3.20;99.90;;;;;;4985008;28;20045;-86
2023/05/03 04:45:05;;;;;;;8.80;2.92;;;3.20;99.90;;;;;;5012641;28;20033;-86
2023/05/03 04:47:31;;;;;;;10.07;3.00;;;3.20;99.90;;;;;;4979054;28;20035;-86
2023/05/03 04:49:57;;;;;;;8.90;2.25;;;3.30;99.90;;;;;;5010620;28;20104;-87
2023/05/03 04:52:24;;;;;;;10.00;2.97;;;3.40;99.90;;;;;;5007704;28;20057;-86
2023/05/03 04:54:50;;;;;;;7.72;3.53;;;3.50;99.90;;;;;;4997860;28;20029;-86
2023/05/03 04:57:16;;;;;;;7.72;3.13;;;3.50;99.90;;;;;;4988336;28;20391;-86
2023/05/03 04:59:41;;;;;;;5.63;2.45;;;3.60;99.90;;;;;;4993993;28;20037;-86
2023/05/03 05:02:07;;;;;;;5.07;2.60;;;3.70;99.90;;;;;;4996742;28;20049;-86
2023/05/03 05:04:32;;;;;;;8.55;3.30;;;3.80;99.90;;;;;;5004960;28;20528;-86
2023/05/03 05:06:58;;;;;;;5.57;2.42;;;3.80;99.90;;;;;;4980238;28;20037;-86
2023/05/03 05:09:27;;;;;;;8.63;3.05;;;3.90;99.90;;;;;;4996346;28;20113;-86
2023/05/03 05:11:53;;;;;;;5.47;2.20;;;4.00;99.90;;;;;;4988013;28;20034;-86
2023/05/03 05:14:19;;;;;;;7.47;3.10;;;4.00;99.90;;;;;;4981370;28;20382;-86
2023/05/03 05:16:44;;;;;;;3.97;2.40;;;4.10;99.90;;;;;;4978267;28;20034;-86
2023/05/03 05:19:11;;;;;;;8.68;2.72;;;4.20;99.90;;;;;;4962756;28;20026;-86
2023/05/03 05:21:37;;;;;;;6.65;2.63;;;4.30;99.90;;;;;;4993764;28;20102;-86
2023/05/03 05:24:02;;;;;;;8.10;2.92;;;4.30;99.90;;;;;;4984100;28;20121;-86
2023/05/03 05:26:28;;;;;;;6.60;2.78;;;4.40;99.90;;;;;;4996837;28;20018;-86
2023/05/03 05:28:54;;;;;;;8.15;2.92;;;4.40;99.90;;;;;;4996377;28;20038;-86
2023/05/03 05:31:20;;;;;;;6.32;2.85;;;4.50;99.90;;;;;;4976668;28;20022;-86
2023/05/03 05:33:46;;;;;;;8.02;2.95;;;4.60;99.90;;;;;;4987773;28;20026;-86
2023/05/03 05:36:11;;;;;;;5.00;2.63;;;4.70;99.90;;;;;;4989041;28;20026;-87
2023/05/03 05:38:37;;;;;;;6.20;2.42;;;5.00;99.90;;;;;;4979444;28;20027;-86
2023/05/03 05:41:02;;;;;;;9.75;4.28;;;5.20;99.90;;;;;;4979333;28;20034;-86
2023/05/03 05:43:28;;;;;;;5.80;3.33;;;5.50;99.90;;;;;;4983776;28;20042;-86
2023/05/03 05:45:53;;;;;;;9.15;2.80;;;5.70;99.90;;;;;;4985214;28;20135;-87
2023/05/03 05:48:19;;;;;;;6.53;2.90;;;5.90;99.90;;;;;;4989638;28;20474;-86
2023/05/03 05:50:44;;;;;;;8.68;3.33;;;6.00;99.90;;;;;;4972405;28;20169;-87
2023/05/03 05:53:10;;;;;;;10.32;3.45;;;6.00;99.90;;;;;;5000727;28;20021;-86
2023/05/03 05:55:36;;;;;;;6.47;2.75;;;6.00;99.90;;;;;;4984798;28;20172;-86
2023/05/03 05:58:01;;;;;;;7.25;3.00;;;6.10;99.90;;;;;;4989028;28;20050;-86
2023/05/03 06:00:27;;;;;;;15.57;3.80;;;6.20;99.90;;;;;;4975135;28;20030;-86
2023/05/03 06:02:53;;;;;;;9.57;3.35;;;6.30;99.90;;;;;;4985157;28;20046;-86
2023/05/03 06:05:19;;;;;;;7.03;3.47;;;6.40;99.90;;;;;;4991005;28;20134;-86
2023/05/03 06:07:45;;;;;;;6.32;3.30;;;6.40;99.90;;;;;;4980889;28;20113;-86
2023/05/03 06:10:10;;;;;;;6.78;3.30;;;6.60;99.90;;;;;;4999350;28;20018;-87
2023/05/03 06:12:36;;;;;;;9.75;3.40;;;6.70;99.90;;;;;;4990522;28;20110;-86
2023/05/03 06:15:02;;;;;;;6.53;3.15;;;6.70;99.90;;;;;;4981464;28;20022;-86
2023/05/03 06:17:28;;;;;;;10.15;3.15;;;6.90;99.90;;;;;;4970158;28;20100;-86
2023/05/03 06:19:53;;;;;;;9.35;3.20;;;6.90;99.90;;;;;;4994394;28;20030;-86
2023/05/03 06:22:19;;;;;;;6.05;2.67;;;7.10;99.90;;;;;;4977296;28;20431;-86
2023/05/03 06:24:44;;;;;;;4.93;2.92;;;7.20;99.90;;;;;;4977760;28;20051;-86
2023/05/03 06:27:10;;;;;;;5.55;2.85;;;7.30;99.90;;;;;;4993538;28;20022;-86
2023/05/03 06:29:35;;;;;;;9.05;3.42;;;7.30;99.90;;;;;;4996368;28;20438;-86
2023/05/03 06:32:01;;;;;;;7.28;2.55;;;7.40;99.90;;;;;;4978708;28;20033;-86
2023/05/03 06:34:26;;;;;;;10.38;2.97;;;7.50;99.90;;;;;;4970940;28;20487;-86
2023/05/03 06:36:52;;;;;;;6.25;2.17;;;7.60;99.90;;;;;;4988823;28;20066;-86
2023/05/03 06:39:17;;;;;;;7.18;2.40;;;7.70;99.90;;;;;;4994879;28;20026;-86
2023/05/03 06:41:43;;;;;;;6.95;2.55;;;7.80;99.90;;;;;;4995400;28;20066;-86
2023/05/03 06:44:09;;;;;;;4.07;2.72;;;7.90;99.90;;;;;;4978231;28;20159;-86
2023/05/03 06:46:34;;;;;;;6.97;2.88;;;8.00;99.90;;;;;;4982259;28;20026;-87
2023/05/03 06:49:00;;;;;;;8.52;2.13;;;8.10;99.90;;;;;;4996198;28;20443;-87
2023/05/03 06:51:31;;;;;;;8.25;2.15;;;8.20;99.90;;;;;;4990719;28;20030;-86
2023/05/03 06:54:08;;;;;;;4.72;2.10;;;8.30;99.90;;;;;;4973851;28;20030;-87
2023/05/03 06:56:35;;;;;;;6.43;2.35;;;8.30;99.90;;;;;;4999301;28;20030;-86
2023/05/03 06:59:02;;;;;;;7.07;2.17;;;8.40;99.90;;;;;;4979154;28;20038;-87
2023/05/03 07:01:28;;;;;;;7.32;1.70;;;8.50;99.90;;;;;;4974717;28;20085;-86
2023/05/03 07:03:53;;;;;;;6.03;1.52;;;8.60;99.90;;;;;;4991518;28;20038;-87
2023/05/03 07:06:19;;;;;;;3.65;1.58;;;8.80;99.90;;;;;;4976801;28;20184;-87
2023/05/03 07:08:44;;;;;;;2.63;1.55;;;8.80;99.90;;;;;;4977381;28;20094;-87
2023/05/03 07:11:10;;;;;;;4.93;1.60;;;8.90;99.90;;;;;;4978973;28;20018;-87
2023/05/03 07:13:35;;;;;;;5.80;1.23;;;8.90;99.90;;;;;;4989542;28;20038;-87
2023/05/03 07:16:01;;;;;;;6.28;1.35;;;9.00;99.90;;;;;;5010367;28;20014;-87
2023/05/03 07:18:27;;;;;;;5.75;1.48;;;9.10;99.90;;;;;;4968682;28;20030;-87
2023/05/03 07:20:52;;;;;;;5.78;1.30;;;9.20;99.90;;;;;;4977485;28;20026;-87
2023/05/03 07:23:18;;;;;;;3.83;1.00;;;9.30;99.90;;;;;;4975475;28;20129;-86
2023/05/03 07:25:44;;;;;;;3.80;0.77;;;9.40;99.90;;;;;;4970493;28;20107;-87
2023/05/03 07:28:10;;;;;;;4.95;1.20;;;9.50;99.90;;;;;;4974568;28;20041;-86
2023/05/03 07:30:36;;;;;;;6.95;1.30;;;9.50;99.90;;;;;;4967372;28;20019;-87
2023/05/03 07:33:02;;;;;;;6.60;1.23;;;9.50;99.90;;;;;;4986630;28;20026;-87
2023/05/03 07:35:28;;;;;;;5.10;1.35;;;9.60;99.90;;;;;;5006762;28;20038;-87
2023/05/03 07:37:53;;;;;;;6.10;1.08;;;9.70;99.90;;;;;;4989838;28;20030;-86
2023/05/03 07:40:19;;;;;;;4.60;1.17;;;9.70;99.90;;;;;;4976929;28;20390;-87
2023/05/03 07:42:45;;;;;;;6.50;1.20;;;9.80;99.90;;;;;;4977511;28;20514;-86
2023/05/03 07:45:11;;;;;;;4.10;1.35;;;9.80;99.90;;;;;;4971588;28;20022;-86
2023/05/03 07:47:38;;;;;;;6.88;1.33;;;10.00;99.90;;;;;;4968544;28;20038;-87
2023/05/03 07:50:05;;;;;;;4.13;1.30;;;10.10;99.90;;;;;;4973357;28;20050;-86
2023/05/03 07:52:37;;;;;;;5.20;1.17;;;10.10;99.90;;;;;;4976650;28;20478;-87
2023/05/03 07:55:03;;;;;;;;;;;10.20;99.90;;;;;;4976789;28;20033;-87
2023/05/03 07:57:29;;;;;;;8.32;0.98;;;10.20;99.90;;;;;;4978947;28;19921;-87
2023/05/03 07:59:55;;;;;;;5.20;0.98;;;10.20;99.90;;;;;;4990220;28;20033;-87
2023/05/03 08:02:21;;;;;;;6.75;1.52;;;10.20;99.90;;;;;;4997846;28;20046;-87
2023/05/03 08:04:47;;;;;;;3.33;1.00;;;10.20;99.90;;;;;;4997071;28;20045;-87
2023/05/03 08:07:13;;;;;;;4.93;1.25;;;10.30;99.90;;;;;;5015889;28;20390;-88
2023/05/03 08:09:40;;;;;;;4.05;1.65;;;10.40;99.90;;;;;;4992525;28;20175;-88
2023/05/03 08:12:06;;;;;;;3.42;0.90;;;10.40;99.90;;;;;;5004466;28;20032;-87
2023/05/03 08:14:32;;;;;;;3.05;0.90;;;10.60;99.90;;;;;;5004279;28;20030;-87
2023/05/03 08:16:58;;;;;;;5.25;1.00;;;10.60;99.90;;;;;;4999827;28;20033;-88
2023/05/03 08:19:24;;;;;;;7.10;0.95;;;10.70;99.90;;;;;;4994638;28;20398;-87
2023/05/03 08:21:53;;;;;;;4.13;1.20;;;10.80;99.90;;;;;;4992263;28;20038;-87
2023/05/03 08:24:18;;;;;;;3.67;0.77;;;10.80;99.90;;;;;;4994155;28;20116;-87
2023/05/03 08:26:45;;;;;;;4.28;0.98;;;10.90;99.90;;;;;;5011153;28;20180;-87
2023/05/03 08:29:11;;;;;;;3.45;1.00;;;10.90;99.90;;;;;;4995157;28;20153;-87
2023/05/03 08:31:36;;;;;;;5.47;1.08;;;11.00;99.90;;;;;;5000401;28;20114;-87
2023/05/03 08:34:02;;;;;;;2.63;0.80;;;11.10;99.90;;;;;;4991384;28;20048;-87
2023/05/03 08:36:30;;;;;;;7.63;1.42;;;11.20;99.90;;;;;;4994914;28;20026;-87
2023/05/03 08:38:55;;;;;;;2.75;0.90;;;11.30;99.90;;;;;;4999134;28;20073;-87
2023/05/03 08:41:30;;;;;;;7.07;1.48;;;11.40;99.90;;;;;;5011758;28;20033;-87
2023/05/03 08:43:56;;;;;;;6.10;1.20;;;11.60;99.90;;;;;;4995061;28;20040;-87
2023/05/03 08:46:24;;;;;;;7.43;1.42;;;11.70;99.90;;;;;;4990536;28;20019;-87
2023/05/03 08:48:54;;;;;;;5.45;1.70;;;11.90;99.90;;;;;;4977172;28;20040;-87
2023/05/03 08:51:21;;;;;;;10.05;1.35;;;12.00;99.90;;;;;;4992077;28;20054;-87
2023/05/03 08:53:46;;;;;;;5.93;1.38;;;12.00;99.90;;;;;;4996115;28;20045;-87
2023/05/03 08:56:27;;;;;;;3.78;1.05;;;12.00;99.90;;;;;;4996149;28;20064;-87
2023/05/03 08:58:53;;;;;;;5.75;1.15;;;12.00;99.90;;;;;;5012177;28;20410;-87
2023/05/03 09:01:19;;;;;;;5.40;1.20;;;11.90;99.90;;;;;;4998221;28;20037;-87
2023/05/03 09:03:49;;;;;;;3.20;0.77;;;11.90;99.90;;;;;;4995736;28;20042;-88
2023/05/03 09:06:25;;;;;;;5.40;0.90;;;12.10;99.90;;;;;;5020417;28;20068;-88
2023/05/03 09:08:50;;;;;;;4.93;1.55;;;12.10;99.50;;;;;;4998996;28;20021;-87
2023/05/03 09:11:26;;;;;;;3.55;1.10;;;12.00;98.90;;;;;;5019739;28;20046;-87
2023/05/03 09:13:52;;;;;;;3.72;1.15;;;12.00;98.70;;;;;;5014304;28;20025;-87
2023/05/03 09:16:27;;;;;;;3.92;0.95;;;11.90;97.60;;;;;;5003875;28;20046;-87
2023/05/03 09:19:00;;;;;;;4.78;1.10;;;11.90;97.20;;;;;;5013728;28;20022;-87
2023/05/03 09:21:27;;;;;;;5.30;1.10;;;11.90;97.10;;;;;;4995472;28;20030;-87
2023/05/03 09:23:52;;;;;;;5.25;1.17;;;11.90;97.50;;;;;;4992407;28;20515;-87
2023/05/03 09:26:34;;;;;;;9.18;1.27;;;12.00;98.10;;;;;;4998317;28;20125;-86
2023/05/03 09:29:02;;;;;;;3.63;0.98;;;12.10;97.90;;;;;;4991778;28;20499;-87
2023/05/03 09:31:29;;;;;;;5.57;0.98;;;12.20;97.60;;;;;;4980825;28;20034;-87
2023/05/03 09:33:55;;;;;;;4.22;1.27;;;12.20;97.40;;;;;;4989060;28;20053;-87
2023/05/03 09:36:21;;;;;;;5.30;1.70;;;12.30;96.80;;;;;;4996320;28;20018;-87
2023/05/03 09:38:47;;;;;;;4.55;1.38;;;12.30;96.10;;;;;;4987912;28;20022;-86
2023/05/03 09:41:13;;;;;;;5.68;1.52;;;12.30;96.40;;;;;;5025248;28;20044;-87
2023/05/03 09:43:50;;;;;;;5.00;1.40;;;12.40;96.40;;;;;;4997854;28;20061;-87
2023/05/03 09:46:15;;;;;;;5.55;1.75;;;12.50;95.50;;;;;;5006981;28;20112;-87
2023/05/03 09:48:41;;;;;;;6.63;1.48;;;12.40;95.60;;;;;;5013255;28;20061;-87
2023/05/03 09:51:08;;;;;;;4.18;1.42;;;12.40;95.60;;;;;;5014897;28;20037;-87
2023/05/03 09:53:35;;;;;;;4.90;1.55;;;12.50;95.10;;;;;;5014727;28;20030;-87
2023/05/03 09:56:03;;;;;;;4.43;1.60;;;12.40;95.10;;;;;;4997541;28;20096;-87
2023/05/03 09:58:33;;;;;;;7.10;1.50;;;12.40;95.00;;;;;;5000073;28;20050;-87
2023/05/03 10:00:59;;;;;;;6.93;1.80;;;12.50;94.90;;;;;;5009430;28;20033;-87
2023/05/03 10:03:42;;;;;;;5.13;1.33;;;12.50;94.30;;;;;;5017475;28;20034;-86
2023/05/03 10:06:29;;;;;;;4.55;1.40;;;12.50;94.60;;;;;;5000192;28;20544;-87
2023/05/03 10:09:25;;;;;;;4.20;1.50;;;12.70;95.00;;;;;;5000563;28;20493;-87
2023/05/03 10:11:52;;;;;;;4.65;1.00;;;12.90;95.30;;;;;;4981302;28;20429;-87
2023/05/03 10:14:20;;;;;;;2.42;1.08;;;13.00;94.60;;;;;;4995082;28;20058;-87
2023/05/03 10:16:49;;;;;;;4.88;1.30;;;13.00;93.40;;;;;;5000060;28;20030;-87
2023/05/03 10:19:33;;;;;;;5.70;1.80;;;13.00;93.40;;;;;;5016828;28;20371;-87
2023/05/03 10:22:06;;;;;;;3.55;1.38;;;13.00;92.90;;;;;;5017541;28;20034;-86
2023/05/03 10:24:34;;;;;;;3.28;0.90;;;13.00;93.30;;;;;;4984614;28;20054;-86
2023/05/03 10:27:00;;;;;;;7.15;1.33;;;13.10;93.20;;;;;;4985905;28;20037;-87
2023/05/03 10:29:35;;;;;;;4.68;1.38;;;13.20;92.00;;;;;;4999766;28;20034;-87
2023/05/03 10:32:02;;;;;;;6.10;1.80;;;13.00;91.20;;;;;;5013589;28;20025;-86
2023/05/03 10:34:33;;;;;;;4.60;1.30;;;13.00;91.80;;;;;;4998085;28;20552;-87
2023/05/03 10:37:08;;;;;;;4.53;1.10;;;13.20;91.80;;;;;;5019920;28;20025;-87
2023/05/03 10:39:34;;;;;;;4.07;1.25;;;13.20;92.30;;;;;;5027178;28;20367;-87
2023/05/03 10:42:03;;;;;;;4.43;1.50;;;13.40;92.60;;;;;;4998497;28;20037;-87
2023/05/03 10:45:00;;;;;;;5.57;1.45;;;13.40;91.20;;;;;;5019630;28;20029;-86
2023/05/03 10:47:25;;;;;;;5.13;1.27;;;13.40;90.90;;;;;;4988335;28;20390;-87
2023/05/03 10:50:13;;;;;;;6.80;1.50;;;13.40;91.40;;;;;;4998438;28;20088;-86
2023/05/03 10:52:38;;;;;;;6.07;1.13;;;13.50;90.90;;;;;;5014861;28;20153;-87
2023/05/03 10:55:19;;;;;;;3.78;1.30;;;13.60;91.00;;;;;;4999186;28;21244;-86
2023/05/03 10:57:47;;;;;;;3.03;1.08;;;13.50;90.30;;;;;;5007808;28;20046;-87
2023/05/03 11:00:22;;;;;;;6.38;1.67;;;13.50;89.90;;;;;;5014614;28;20064;-87
2023/05/03 11:03:08;;;;;;;6.18;1.63;;;13.60;90.80;;;;;;5001544;28;20033;-87
2023/05/03 11:05:36;;;;;;;4.32;1.42;;;13.70;90.10;;;;;;4997838;28;20023;-87
2023/05/03 11:08:17;;;;;;;3.05;1.30;;;13.70;89.70;;;;;;5012529;28;20436;-86
2023/05/03 11:10:44;;;;;;;4.65;1.13;;;13.70;88.30;;;;;;4995179;28;20101;-87
2023/05/03 11:13:10;;;;;;;5.25;1.45;;;13.60;88.00;;;;;;4985999;28;20466;-86
2023/05/03 11:15:36;;;;;;;5.07;1.10;;;13.60;88.80;;;;;;5015358;28;20030;-87
2023/05/03 11:18:03;;;;;;;4.28;1.17;;;13.80;88.80;;;;;;4995446;28;20030;-87
2023/05/03 11:20:29;;;;;;;7.75;1.27;;;13.90;88.20;;;;;;4998161;28;20033;-87
2023/05/03 11:22:55;;;;;;;6.90;1.42;;;14.00;86.80;;;;;;4997173;28;20037;-87
2023/05/03 11:25:21;;;;;;;4.28;1.55;;;13.90;87.10;;;;;;5023141;28;20065;-87
2023/05/03 11:27:47;;;;;;;4.95;1.08;;;14.10;87.70;;;;;;4996523;28;20137;-87
2023/05/03 11:30:13;;;;;;;4.10;1.23;;;14.10;85.60;;;;;;5008782;28;20090;-87
2023/05/03 11:32:42;;;;;;;3.60;1.20;;;14.20;86.10;;;;;;4994208;28;20029;-87
2023/05/03 11:35:09;;;;;;;4.32;1.33;;;14.30;85.70;;;;;;5008001;28;20026;-87
2023/05/03 11:37:35;;;;;;;3.95;1.20;;;14.50;85.60;;;;;;4991550;28;20057;-87
2023/05/03 11:40:01;;;;;;;6.13;1.15;;;14.50;81.90;;;;;;4995158;28;20053;-87
2023/05/03 11:42:27;;;;;;;4.25;1.58;;;14.40;82.00;;;;;;5012904;28;20038;-87
2023/05/03 11:44:53;;;;;;;4.35;1.30;;;14.40;82.40;;;;;;4995943;28;20501;-87
2023/05/03 11:47:20;;;;;;;4.53;1.60;;;14.50;82.20;;;;;;5000429;28;20025;-87
2023/05/03 11:49:56;;;;;;;4.80;1.15;;;14.50;81.10;;;;;;4989410;28;20034;-87
2023/05/03 11:52:23;;;;;;;5.53;1.42;;;14.40;80.40;;;;;;4991993;28;20474;-87
2023/05/03 11:54:50;;;;;;;9.35;1.60;;;14.40;80.70;;;;;;4989041;28;20026;-87
2023/05/03 11:57:16;;;;;;;6.35;1.15;;;14.40;79.90;;;;;;5013802;28;20038;-84
2023/05/03 11:59:43;;;;;;;5.15;1.40;;;14.50;79.20;;;;;;5020033;28;20030;-86
2023/05/03 12:02:11;;;;;;;3.30;1.23;;;14.60;80.60;;;;;;4991007;28;20026;-87
2023/05/03 12:04:42;;;;;;;4.57;1.25;;;14.80;80.30;;;;;;5027821;28;20032;-87
2023/05/03 12:07:09;;;;;;;4.22;1.77;;;14.90;80.00;;;;;;5025569;28;20044;-87
2023/05/03 12:09:34;;;;;;;7.60;1.20;;;14.90;79.20;;;;;;5008733;28;20382;-87
2023/05/03 12:12:04;;;;;;;5.47;1.65;;;15.00;78.90;;;;;;4985478;28;20029;-86
2023/05/03 12:15:00;;;;;;;2.70;1.30;;;15.00;78.10;;;;;;5024083;28;20545;-85
2023/05/03 12:17:39;;;;;;;3.13;1.58;;;15.00;77.60;;;;;;5013031;28;20037;-87
2023/05/03 12:20:21;;;;;;;4.03;1.08;;;15.10;76.60;;;;;;4993962;28;20030;-86
2023/05/03 12:22:47;;;;;;;;;;;15.00;76.40;;;;;;4993360;28;20042;-87
2023/05/03 12:25:13;;;;;;;8.57;1.67;;;15.00;77.10;;;;;;4992458;28;19926;-86
2023/05/03 12:27:38;;;;;;;4.47;1.63;;;15.10;76.70;;;;;;5008891;28;20116;-87
2023/05/03 12:30:04;;;;;;;5.03;1.30;;;15.10;77.10;;;;;;5010886;28;21855;-87
2023/05/03 12:32:30;;;;;;;2.88;0.95;;;15.30;77.30;;;;;;5022712;28;20034;-87
2023/05/03 12:34:56;;;;;;;3.35;1.40;;;15.50;77.20;;;;;;4993269;28;20040;-87
2023/05/03 12:37:21;;;;;;;4.68;1.92;;;15.50;76.30;;;;;;5002266;28;20029;-87
2023/05/03 12:39:47;;;;;;;6.05;1.95;;;15.30;75.50;;;;;;4989275;28;20566;-87
2023/05/03 12:42:13;;;;;;;4.97;1.77;;;15.30;76.50;;;;;;5002864;28;20054;-87
2023/05/03 12:44:39;;;;;;;4.97;1.25;;;15.30;75.40;;;;;;4996924;28;20072;-86
2023/05/03 12:47:05;;;;;;;7.50;1.73;;;15.30;76.20;;;;;;4995927;28;20064;-87
2023/05/03 12:49:30;;;;;;;5.10;1.65;;;15.40;74.90;;;;;;5017291;28;20033;-86
2023/05/03 12:51:59;;;;;;;7.07;1.48;;;15.40;75.10;;;;;;5034313;28;20021;-86
2023/05/03 12:54:25;;;;;;;8.07;1.90;;;15.50;74.80;;;;;;4988731;28;20402;-85
2023/05/03 12:56:50;;;;;;;4.63;1.63;;;15.40;74.60;;;;;;5006002;28;20026;-87